sensor_id;sensor_type;location;lat;lon;timestamp;pressure;altitude;pressure_sealevel;temperature;humidity
48614;BME280;34408;51.426;5.444;2023-04-23T00:01:15;100693.13;;;12.74;63.56
48614;BME280;34408;51.426;5.444;2023-04-23T00:03:45;100694.53;;;12.77;63.12
48614;BME280;34408;51.426;5.444;2023-04-23T00:06:15;100688.56;;;12.75;63.21
48614;BME280;34408;51.426;5.444;2023-04-23T00:08:44;100695.34;;;12.77;63.57
48614;BME280;34408;51.426;5.444;2023-04-23T00:11:13;100692.06;;;12.75;63.57
48614;BME280;34408;51.426;5.444;2023-04-23T00:13:41;100692.31;;;12.74;63.26
48614;BME280;34408;51.426;5.444;2023-04-23T00:16:10;100691.50;;;12.73;63.61
48614;BME280;34408;51.426;5.444;2023-04-23T00:18:38;100689.03;;;12.71;63.41
48614;BME280;34408;51.426;5.444;2023-04-23T00:21:06;100689.03;;;12.71;63.33
48614;BME280;34408;51.426;5.444;2023-04-23T00:23:36;100686.81;;;12.68;63.30
48614;BME280;34408;51.426;5.444;2023-04-23T00:26:04;100689.28;;;12.70;63.50
48614;BME280;34408;51.426;5.444;2023-04-23T00:28:32;100689.50;;;12.68;63.47
48614;BME280;34408;51.426;5.444;2023-04-23T00:31:00;100686.81;;;12.68;63.13
48614;BME280;34408;51.426;5.444;2023-04-23T00:33:27;100682.47;;;12.67;63.05
48614;BME280;34408;51.426;5.444;2023-04-23T00:35:55;100683.53;;;12.66;63.39
48614;BME280;34408;51.426;5.444;2023-04-23T00:38:23;100684.59;;;12.65;63.17
48614;BME280;34408;51.426;5.444;2023-04-23T00:40:53;100682.13;;;12.64;63.44
48614;BME280;34408;51.426;5.444;2023-04-23T00:43:21;100677.00;;;12.62;63.10
48614;BME280;34408;51.426;5.444;2023-04-23T00:45:49;100679.69;;;12.62;63.27
48614;BME280;34408;51.426;5.444;2023-04-23T00:48:17;100665.38;;;12.62;63.03
48614;BME280;34408;51.426;5.444;2023-04-23T00:50:45;100666.69;;;12.59;63.23
48614;BME280;34408;51.426;5.444;2023-04-23T00:53:13;100665.88;;;12.59;63.41
48614;BME280;34408;51.426;5.444;2023-04-23T00:55:42;100662.34;;;12.58;63.09
48614;BME280;34408;51.426;5.444;2023-04-23T00:58:11;100644.09;;;12.49;63.33
48614;BME280;34408;51.426;5.444;2023-04-23T01:00:42;100647.84;;;12.48;63.01
48614;BME280;34408;51.426;5.444;2023-04-23T01:03:12;100649.00;;;12.52;63.24
48614;BME280;34408;51.426;5.444;2023-04-23T01:05:41;100644.19;;;12.54;63.35
48614;BME280;34408;51.426;5.444;2023-04-23T01:08:10;100639.03;;;12.52;63.41
48614;BME280;34408;51.426;5.444;2023-04-23T01:10:40;100649.00;;;12.52;63.09
48614;BME280;34408;51.426;5.444;2023-04-23T01:13:10;100638.22;;;12.52;62.99
48614;BME280;34408;51.426;5.444;2023-04-23T01:15:38;100645.72;;;12.50;62.97
48614;BME280;34408;51.426;5.444;2023-04-23T01:18:06;100644.91;;;12.49;63.23
48614;BME280;34408;51.426;5.444;2023-04-23T01:20:34;100635.19;;;12.48;63.18
48614;BME280;34408;51.426;5.444;2023-04-23T01:23:04;100642.47;;;12.48;63.28
48614;BME280;34408;51.426;5.444;2023-04-23T01:25:33;100640.81;;;12.47;62.97
48614;BME280;34408;51.426;5.444;2023-04-23T01:28:01;100638.13;;;12.47;63.33
48614;BME280;34408;51.426;5.444;2023-04-23T01:30:29;100634.63;;;12.46;63.00
48614;BME280;34408;51.426;5.444;2023-04-23T01:32:57;100638.38;;;12.45;63.02
48614;BME280;34408;51.426;5.444;2023-04-23T01:35:26;100634.84;;;12.45;63.18
48614;BME280;34408;51.426;5.444;2023-04-23T01:37:55;100631.34;;;12.44;63.15
48614;BME280;34408;51.426;5.444;2023-04-23T01:40:25;100633.44;;;12.42;63.31
48614;BME280;34408;51.426;5.444;2023-04-23T01:42:53;100628.06;;;12.42;62.98
48614;BME280;34408;51.426;5.444;2023-04-23T01:45:21;100630.75;;;12.42;63.30
48614;BME280;34408;51.426;5.444;2023-04-23T01:47:49;100632.63;;;12.42;63.02
48614;BME280;34408;51.426;5.444;2023-04-23T01:50:17;100632.06;;;12.39;62.92
48614;BME280;34408;51.426;5.444;2023-04-23T01:52:47;100626.44;;;12.41;62.90
48614;BME280;34408;51.426;5.444;2023-04-23T01:55:15;100632.06;;;12.39;63.09
48614;BME280;34408;51.426;5.444;2023-04-23T01:57:45;100634.75;;;12.39;62.88
48614;BME280;34408;51.426;5.444;2023-04-23T02:00:14;100635.81;;;12.38;63.28
48614;BME280;34408;51.426;5.444;2023-04-23T02:02:43;100619.19;;;12.30;63.01
48614;BME280;34408;51.426;5.444;2023-04-23T02:05:12;100631.47;;;12.37;63.19
48614;BME280;34408;51.426;5.444;2023-04-23T02:07:40;100630.91;;;12.35;63.23
48614;BME280;34408;51.426;5.444;2023-04-23T02:10:10;100626.81;;;12.33;63.13
48614;BME280;34408;51.426;5.444;2023-04-23T02:12:38;100637.34;;;12.34;62.97
48614;BME280;34408;51.426;5.444;2023-04-23T02:15:09;100633.59;;;12.35;62.74
48614;BME280;34408;51.426;5.444;2023-04-23T02:17:37;100618.72;;;12.33;62.83
48614;BME280;34408;51.426;5.444;2023-04-23T02:20:06;100615.09;;;12.27;62.96
48614;BME280;34408;51.426;5.444;2023-04-23T02:22:35;100621.66;;;12.31;62.68
48614;BME280;34408;51.426;5.444;2023-04-23T02:25:05;100616.25;;;12.31;62.97
48614;BME280;34408;51.426;5.444;2023-04-23T02:27:33;100621.06;;;12.29;62.97
48614;BME280;34408;51.426;5.444;2023-04-23T02:30:01;100617.31;;;12.30;63.12
48614;BME280;34408;51.426;5.444;2023-04-23T02:32:31;100611.59;;;12.27;62.84
48614;BME280;34408;51.426;5.444;2023-04-23T02:34:58;100616.75;;;12.28;62.73
48614;BME280;34408;51.426;5.444;2023-04-23T02:37:27;100612.41;;;12.27;62.75
48614;BME280;34408;51.426;5.444;2023-04-23T02:39:55;100619.66;;;12.27;62.84
48614;BME280;34408;51.426;5.444;2023-04-23T02:42:22;100611.81;;;12.25;62.88
48614;BME280;34408;51.426;5.444;2023-04-23T02:44:50;100609.59;;;12.22;62.79
48614;BME280;34408;51.426;5.444;2023-04-23T02:47:18;100610.44;;;12.23;62.80
48614;BME280;34408;51.426;5.444;2023-04-23T02:49:47;100607.50;;;12.24;63.00
48614;BME280;34408;51.426;5.444;2023-04-23T02:52:15;100600.94;;;12.20;62.77
48614;BME280;34408;51.426;5.444;2023-04-23T02:54:43;100610.44;;;12.23;63.14
48614;BME280;34408;51.426;5.444;2023-04-23T02:57:11;100611.47;;;12.22;63.22
48614;BME280;34408;51.426;5.444;2023-04-23T02:59:41;100605.03;;;12.23;63.13
48614;BME280;34408;51.426;5.444;2023-04-23T03:02:09;100607.72;;;12.23;63.20
48614;BME280;34408;51.426;5.444;2023-04-23T03:04:37;100617.69;;;12.22;63.07
48614;BME280;34408;51.426;5.444;2023-04-23T03:07:07;100609.03;;;12.20;63.05
48614;BME280;34408;51.426;5.444;2023-04-23T03:09:34;100609.03;;;12.20;62.98
48614;BME280;34408;51.426;5.444;2023-04-23T03:12:02;100599.31;;;12.19;63.13
48614;BME280;34408;51.426;5.444;2023-04-23T03:14:30;100600.38;;;12.18;62.99
48614;BME280;34408;51.426;5.444;2023-04-23T03:16:58;100594.16;;;12.18;63.23
48614;BME280;34408;51.426;5.444;2023-04-23T03:19:27;100592.28;;;12.18;62.88
48614;BME280;34408;51.426;5.444;2023-04-23T03:21:55;100593.34;;;12.17;62.93
48614;BME280;34408;51.426;5.444;2023-04-23T03:24:24;100595.22;;;12.17;63.17
48614;BME280;34408;51.426;5.444;2023-04-23T03:26:52;100595.22;;;12.17;63.11
48614;BME280;34408;51.426;5.444;2023-04-23T03:29:20;100592.53;;;12.17;63.12
48614;BME280;34408;51.426;5.444;2023-04-23T03:31:48;100594.63;;;12.15;63.13
48614;BME280;34408;51.426;5.444;2023-04-23T03:34:15;100598.97;;;12.16;63.05
48614;BME280;34408;51.426;5.444;2023-04-23T03:36:43;100592.75;;;12.15;63.00
48614;BME280;34408;51.426;5.444;2023-04-23T03:39:14;100593.00;;;12.14;62.89
48614;BME280;34408;51.426;5.444;2023-04-23T03:41:43;100593.00;;;12.14;63.27
48614;BME280;34408;51.426;5.444;2023-04-23T03:44:11;100590.31;;;12.14;62.83
48614;BME280;34408;51.426;5.444;2023-04-23T03:46:39;100591.38;;;12.13;63.16
48614;BME280;34408;51.426;5.444;2023-04-23T03:49:06;100595.13;;;12.12;62.97
48614;BME280;34408;51.426;5.444;2023-04-23T03:51:34;100588.94;;;12.11;63.02
48614;BME280;34408;51.426;5.444;2023-04-23T03:54:02;100593.50;;;12.11;63.31
48614;BME280;34408;51.426;5.444;2023-04-23T03:56:30;100592.69;;;12.10;62.99
48614;BME280;34408;51.426;5.444;2023-04-23T03:58:59;100594.56;;;12.10;62.89
48614;BME280;34408;51.426;5.444;2023-04-23T04:01:26;100586.72;;;12.08;63.03
48614;BME280;34408;51.426;5.444;2023-04-23T04:03:54;100593.97;;;12.08;63.26
48614;BME280;34408;51.426;5.444;2023-04-23T04:06:22;100593.16;;;12.07;63.19
48614;BME280;34408;51.426;5.444;2023-04-23T04:08:50;100597.97;;;12.05;63.36
48614;BME280;34408;51.426;5.444;2023-04-23T04:11:17;100596.09;;;12.05;63.25
48614;BME280;34408;51.426;5.444;2023-04-23T04:13:46;100600.06;;;12.03;63.54
48614;BME280;34408;51.426;5.444;2023-04-23T04:16:15;100601.47;;;12.05;63.21
48614;BME280;34408;51.426;5.444;2023-04-23T04:18:43;100601.13;;;12.02;63.19
48614;BME280;34408;51.426;5.444;2023-04-23T04:21:11;100603.59;;;12.03;63.51
48614;BME280;34408;51.426;5.444;2023-04-23T04:23:38;100592.81;;;12.03;63.29
48614;BME280;34408;51.426;5.444;2023-04-23T04:26:06;100597.38;;;12.03;63.17
48614;BME280;34408;51.426;5.444;2023-04-23T04:28:34;100602.78;;;12.03;63.35
48614;BME280;34408;51.426;5.444;2023-04-23T04:31:03;100596.56;;;12.02;63.31
48614;BME280;34408;51.426;5.444;2023-04-23T04:33:33;100593.06;;;12.02;63.66
48614;BME280;34408;51.426;5.444;2023-04-23T04:36:05;100598.69;;;12.00;63.60
48614;BME280;34408;51.426;5.444;2023-04-23T04:38:34;100596.81;;;12.01;63.50
48614;BME280;34408;51.426;5.444;2023-04-23T04:41:03;100588.97;;;11.99;63.65
48614;BME280;34408;51.426;5.444;2023-04-23T04:43:31;100585.69;;;11.97;63.83
48614;BME280;34408;51.426;5.444;2023-04-23T04:45:59;100597.03;;;11.99;63.71
48614;BME280;34408;51.426;5.444;2023-04-23T04:48:29;100588.13;;;11.99;63.44
48614;BME280;34408;51.426;5.444;2023-04-23T04:50:58;100598.91;;;11.99;63.56
48614;BME280;34408;51.426;5.444;2023-04-23T04:53:26;100593.75;;;11.97;63.65
48614;BME280;34408;51.426;5.444;2023-04-23T04:55:54;100600.78;;;11.98;63.40
48614;BME280;34408;51.426;5.444;2023-04-23T04:58:22;100594.59;;;11.98;63.95
48614;BME280;34408;51.426;5.444;2023-04-23T05:00:49;100592.94;;;11.97;63.76
48614;BME280;34408;51.426;5.444;2023-04-23T05:03:17;100601.84;;;11.97;63.69
48614;BME280;34408;51.426;5.444;2023-04-23T05:05:45;100599.16;;;11.97;63.86
48614;BME280;34408;51.426;5.444;2023-04-23T05:08:15;100597.28;;;11.98;63.66
48614;BME280;34408;51.426;5.444;2023-04-23T05:10:44;100601.03;;;11.97;63.80
48614;BME280;34408;51.426;5.444;2023-04-23T05:13:12;100606.41;;;11.97;63.86
48614;BME280;34408;51.426;5.444;2023-04-23T05:15:40;100591.66;;;11.88;63.48
48614;BME280;34408;51.426;5.444;2023-04-23T05:18:09;100597.50;;;11.96;64.09
48614;BME280;34408;51.426;5.444;2023-04-23T05:20:37;100591.53;;;11.94;63.71
48614;BME280;34408;51.426;5.444;2023-04-23T05:23:05;100597.75;;;11.95;63.75
48614;BME280;34408;51.426;5.444;2023-04-23T05:25:34;100598.22;;;11.92;63.57
48614;BME280;34408;51.426;5.444;2023-04-23T05:28:01;100598.56;;;11.95;63.78
48614;BME280;34408;51.426;5.444;2023-04-23T05:30:29;100608.53;;;11.95;63.85
48614;BME280;34408;51.426;5.444;2023-04-23T05:32:57;100601.25;;;11.95;63.61
48614;BME280;34408;51.426;5.444;2023-04-23T05:35:25;100605.00;;;11.94;63.62
48614;BME280;34408;51.426;5.444;2023-04-23T05:37:53;100606.88;;;11.94;63.58
48614;BME280;34408;51.426;5.444;2023-04-23T05:40:22;100609.56;;;11.94;63.69
48614;BME280;34408;51.426;5.444;2023-04-23T05:42:51;100611.22;;;11.95;63.64
48614;BME280;34408;51.426;5.444;2023-04-23T05:45:19;100601.72;;;11.92;63.91
48614;BME280;34408;51.426;5.444;2023-04-23T05:47:47;100600.91;;;11.92;63.99
48614;BME280;34408;51.426;5.444;2023-04-23T05:50:15;100598.22;;;11.92;64.00
48614;BME280;34408;51.426;5.444;2023-04-23T05:52:43;100596.34;;;11.92;63.92
48614;BME280;34408;51.426;5.444;2023-04-23T05:55:10;100604.44;;;11.92;63.86
48614;BME280;34408;51.426;5.444;2023-04-23T05:57:41;100587.56;;;11.85;63.83
48614;BME280;34408;51.426;5.444;2023-04-23T06:00:10;100601.72;;;11.92;64.03
48614;BME280;34408;51.426;5.444;2023-04-23T06:02:39;100605.00;;;11.94;64.17
48614;BME280;34408;51.426;5.444;2023-04-23T06:05:08;100602.31;;;11.94;64.29
48614;BME280;34408;51.426;5.444;2023-04-23T06:07:36;100599.38;;;11.96;64.31
48614;BME280;34408;51.426;5.444;2023-04-23T06:10:05;100601.59;;;11.99;64.45
48614;BME280;34408;51.426;5.444;2023-04-23T06:12:33;100598.44;;;12.02;64.52
48614;BME280;34408;51.426;5.444;2023-04-23T06:15:05;100601.94;;;12.02;64.02
48614;BME280;34408;51.426;5.444;2023-04-23T06:17:35;100591.75;;;12.04;64.24
48614;BME280;34408;51.426;5.444;2023-04-23T06:20:03;100579.94;;;12.05;64.41
48614;BME280;34408;51.426;5.444;2023-04-23T06:22:31;100575.25;;;12.01;64.19
48614;BME280;34408;51.426;5.444;2023-04-23T06:24:59;100582.72;;;12.11;64.25
48614;BME280;34408;51.426;5.444;2023-04-23T06:27:27;100572.53;;;12.13;64.37
48614;BME280;34408;51.426;5.444;2023-04-23T06:29:55;100572.25;;;12.14;64.13
48614;BME280;34408;51.426;5.444;2023-04-23T06:32:22;100574.72;;;12.16;64.41
48614;BME280;34408;51.426;5.444;2023-04-23T06:34:52;100575.06;;;12.19;64.42
48614;BME280;34408;51.426;5.444;2023-04-23T06:37:26;100574.00;;;12.20;64.64
48614;BME280;34408;51.426;5.444;2023-04-23T06:39:57;100569.53;;;12.26;64.97
48614;BME280;34408;51.426;5.444;2023-04-23T06:42:25;100571.75;;;12.29;64.90
48614;BME280;34408;51.426;5.444;2023-04-23T06:44:53;100583.69;;;12.33;64.41
48614;BME280;34408;51.426;5.444;2023-04-23T06:47:22;100568.91;;;12.35;64.79
48614;BME280;34408;51.426;5.444;2023-04-23T06:49:49;100566.78;;;12.37;64.79
48614;BME280;34408;51.426;5.444;2023-04-23T06:52:19;100567.66;;;12.55;64.83
48614;BME280;34408;51.426;5.444;2023-04-23T06:54:46;100560.72;;;12.59;64.37
48614;BME280;34408;51.426;5.444;2023-04-23T06:57:14;100566.22;;;12.64;64.62
48614;BME280;34408;51.426;5.444;2023-04-23T06:59:42;100561.06;;;12.62;64.39
48614;BME280;34408;51.426;5.444;2023-04-23T07:02:10;100565.88;;;12.60;64.70
48614;BME280;34408;51.426;5.444;2023-04-23T07:04:37;100559.44;;;12.61;64.38
48614;BME280;34408;51.426;5.444;2023-04-23T07:07:06;100563.84;;;12.67;65.10
48614;BME280;34408;51.426;5.444;2023-04-23T07:09:35;100560.91;;;12.69;65.17
48614;BME280;34408;51.426;5.444;2023-04-23T07:12:03;100566.47;;;12.79;64.69
48614;BME280;34408;51.426;5.444;2023-04-23T07:14:31;100562.88;;;12.74;64.90
48614;BME280;34408;51.426;5.444;2023-04-23T07:16:59;100555.84;;;12.73;64.98
48614;BME280;34408;51.426;5.444;2023-04-23T07:19:27;100553.72;;;12.75;65.06
48614;BME280;34408;51.426;5.444;2023-04-23T07:21:54;100554.78;;;12.74;64.97
48614;BME280;34408;51.426;5.444;2023-04-23T07:24:22;100549.41;;;12.74;65.30
48614;BME280;34408;51.426;5.444;2023-04-23T07:26:53;100551.59;;;12.77;65.08
48614;BME280;34408;51.426;5.444;2023-04-23T07:29:21;100554.31;;;12.77;65.29
48614;BME280;34408;51.426;5.444;2023-04-23T07:31:48;100549.25;;;12.80;65.99
48614;BME280;34408;51.426;5.444;2023-04-23T07:34:16;100538.78;;;12.84;65.78
48614;BME280;34408;51.426;5.444;2023-04-23T07:36:44;100545.09;;;13.06;67.35
48614;BME280;34408;51.426;5.444;2023-04-23T07:39:12;100546.72;;;13.07;66.37
48614;BME280;34408;51.426;5.444;2023-04-23T07:41:39;100548.78;;;13.17;65.94
48614;BME280;34408;51.426;5.444;2023-04-23T07:44:09;100542.81;;;13.31;66.82
48614;BME280;34408;51.426;5.444;2023-04-23T07:46:36;100536.94;;;13.18;66.42
48614;BME280;34408;51.426;5.444;2023-04-23T07:49:04;100539.38;;;13.19;66.64
48614;BME280;34408;51.426;5.444;2023-04-23T07:51:32;100534.47;;;13.16;66.36
48614;BME280;34408;51.426;5.444;2023-04-23T07:54:01;100526.53;;;13.10;66.17
48614;BME280;34408;51.426;5.444;2023-04-23T07:56:29;100531.03;;;13.04;66.34
48614;BME280;34408;51.426;5.444;2023-04-23T07:58:58;100538.13;;;13.10;66.86
48614;BME280;34408;51.426;5.444;2023-04-23T08:01:27;100545.50;;;13.15;66.74
48614;BME280;34408;51.426;5.444;2023-04-23T08:03:55;100534.88;;;13.25;67.56
48614;BME280;34408;51.426;5.444;2023-04-23T08:06:25;100522.16;;;13.59;67.42
48614;BME280;34408;51.426;5.444;2023-04-23T08:08:55;100510.88;;;13.45;67.52
48614;BME280;34408;51.426;5.444;2023-04-23T08:11:23;100522.06;;;13.54;67.80
48614;BME280;34408;51.426;5.444;2023-04-23T08:13:50;100516.44;;;13.55;67.27
48614;BME280;34408;51.426;5.444;2023-04-23T08:16:18;100517.78;;;13.36;67.03
48614;BME280;34408;51.426;5.444;2023-04-23T08:18:47;100515.75;;;13.26;66.70
48614;BME280;34408;51.426;5.444;2023-04-23T08:21:31;100509.59;;;13.31;67.05
48614;BME280;34408;51.426;5.444;2023-04-23T08:23:59;100508.97;;;13.24;66.79
48614;BME280;34408;51.426;5.444;2023-04-23T08:26:28;100504.69;;;13.28;68.03
48614;BME280;34408;51.426;5.444;2023-04-23T08:28:56;100497.91;;;13.25;67.46
48614;BME280;34408;51.426;5.444;2023-04-23T08:31:26;100499.22;;;13.23;67.55
48614;BME280;34408;51.426;5.444;2023-04-23T08:33:55;100511.88;;;13.39;69.08
48614;BME280;34408;51.426;5.444;2023-04-23T08:36:23;100512.72;;;13.61;68.78
48614;BME280;34408;51.426;5.444;2023-04-23T08:38:52;100511.53;;;13.52;68.31
48614;BME280;34408;51.426;5.444;2023-04-23T08:41:22;100504.41;;;13.46;67.93
48614;BME280;34408;51.426;5.444;2023-04-23T08:43:56;100499.28;;;13.45;68.09
48614;BME280;34408;51.426;5.444;2023-04-23T08:46:30;100502.78;;;13.45;68.04
48614;BME280;34408;51.426;5.444;2023-04-23T08:48:59;100499.59;;;13.48;68.22
48614;BME280;34408;51.426;5.444;2023-04-23T08:51:29;100496.31;;;13.46;68.19
48614;BME280;34408;51.426;5.444;2023-04-23T08:54:02;100498.53;;;13.49;68.83
48614;BME280;34408;51.426;5.444;2023-04-23T08:56:31;100498.41;;;13.61;68.79
48614;BME280;34408;51.426;5.444;2023-04-23T08:58:59;100501.34;;;13.59;68.50
48614;BME280;34408;51.426;5.444;2023-04-23T09:01:29;100514.38;;;13.62;68.19
48614;BME280;34408;51.426;5.444;2023-04-23T09:03:57;100513.31;;;13.85;68.40
48614;BME280;34408;51.426;5.444;2023-04-23T09:06:28;100505.88;;;13.76;68.25
48614;BME280;34408;51.426;5.444;2023-04-23T09:08:58;100498.78;;;13.70;67.94
48614;BME280;34408;51.426;5.444;2023-04-23T09:11:26;100502.19;;;13.82;68.26
48614;BME280;34408;51.426;5.444;2023-04-23T09:13:55;100500.00;;;13.79;67.93
48614;BME280;34408;51.426;5.444;2023-04-23T09:16:23;100499.66;;;13.75;67.61
48614;BME280;34408;51.426;5.444;2023-04-23T09:18:51;100498.56;;;13.98;67.53
48614;BME280;34408;51.426;5.444;2023-04-23T09:21:19;100488.72;;;13.87;67.93
48614;BME280;34408;51.426;5.444;2023-04-23T09:23:50;100494.69;;;13.89;67.60
48614;BME280;34408;51.426;5.444;2023-04-23T09:26:19;100484.28;;;14.02;67.52
48614;BME280;34408;51.426;5.444;2023-04-23T09:28:48;100480.97;;;13.95;67.52
48614;BME280;34408;51.426;5.444;2023-04-23T09:31:19;100476.38;;;13.96;67.46
48614;BME280;34408;51.426;5.444;2023-04-23T09:33:51;100480.84;;;14.07;67.29
48614;BME280;34408;51.426;5.444;2023-04-23T09:36:20;100469.78;;;14.09;67.25
48614;BME280;34408;51.426;5.444;2023-04-23T09:38:51;100479.19;;;14.06;67.44
48614;BME280;34408;51.426;5.444;2023-04-23T09:41:23;100474.41;;;14.13;67.03
48614;BME280;34408;51.426;5.444;2023-04-23T09:43:52;100476.00;;;14.09;66.87
48614;BME280;34408;51.426;5.444;2023-04-23T09:46:36;100472.97;;;14.06;66.70
48614;BME280;34408;51.426;5.444;2023-04-23T09:49:05;100471.03;;;14.01;66.89
48614;BME280;34408;51.426;5.444;2023-04-23T09:51:35;100476.75;;;14.05;67.03
48614;BME280;34408;51.426;5.444;2023-04-23T09:54:09;100476.81;;;14.10;66.96
48614;BME280;34408;51.426;5.444;2023-04-23T09:56:38;100470.38;;;14.16;66.84
48614;BME280;34408;51.426;5.444;2023-04-23T09:59:19;100464.97;;;14.16;66.70
48614;BME280;34408;51.426;5.444;2023-04-23T10:02:02;100466.88;;;14.15;66.57
48614;BME280;34408;51.426;5.444;2023-04-23T10:04:30;100469.00;;;14.13;66.46
48614;BME280;34408;51.426;5.444;2023-04-23T10:06:59;100467.38;;;14.12;66.51
48614;BME280;34408;51.426;5.444;2023-04-23T10:09:34;100461.72;;;14.14;66.31
48614;BME280;34408;51.426;5.444;2023-04-23T10:12:02;100459.56;;;14.16;66.21
48614;BME280;34408;51.426;5.444;2023-04-23T10:14:29;100459.31;;;14.17;66.07
48614;BME280;34408;51.426;5.444;2023-04-23T10:16:59;100447.91;;;14.10;65.87
48614;BME280;34408;51.426;5.444;2023-04-23T10:19:28;100454.47;;;14.19;66.52
48614;BME280;34408;51.426;5.444;2023-04-23T10:21:56;100456.94;;;14.21;65.94
48614;BME280;34408;51.426;5.444;2023-04-23T10:24:51;100456.66;;;14.22;65.94
48614;BME280;34408;51.426;5.444;2023-04-23T10:27:21;100454.53;;;14.24;66.27
48614;BME280;34408;51.426;5.444;2023-04-23T10:30:10;100450.50;;;14.27;66.10
48614;BME280;34408;51.426;5.444;2023-04-23T10:32:39;100440.75;;;14.26;65.91
48614;BME280;34408;51.426;5.444;2023-04-23T10:35:08;100443.00;;;14.34;66.28
48614;BME280;34408;51.426;5.444;2023-04-23T10:37:37;100436.63;;;14.45;66.01
48614;BME280;34408;51.426;5.444;2023-04-23T10:40:08;100445.81;;;14.44;66.07
48614;BME280;34408;51.426;5.444;2023-04-23T10:42:38;100438.78;;;14.43;65.55
48614;BME280;34408;51.426;5.444;2023-04-23T10:45:13;100428.78;;;14.44;65.92
48614;BME280;34408;51.426;5.444;2023-04-23T10:47:52;100414.19;;;14.45;65.73
48614;BME280;34408;51.426;5.444;2023-04-23T10:50:24;100424.09;;;14.66;66.12
48614;BME280;34408;51.426;5.444;2023-04-23T10:52:53;100418.66;;;14.61;65.53
48614;BME280;34408;51.426;5.444;2023-04-23T10:55:25;100412.69;;;14.59;65.68
48614;BME280;34408;51.426;5.444;2023-04-23T10:57:58;100410.78;;;14.59;65.63
48614;BME280;34408;51.426;5.444;2023-04-23T11:00:29;100406.19;;;14.60;65.65
48614;BME280;34408;51.426;5.444;2023-04-23T11:03:26;100409.47;;;14.62;65.51
48614;BME280;34408;51.426;5.444;2023-04-23T11:05:55;100406.75;;;14.62;65.28
48614;BME280;34408;51.426;5.444;2023-04-23T11:08:23;100397.56;;;14.63;65.34
48614;BME280;34408;51.426;5.444;2023-04-23T11:10:53;100390.28;;;14.63;65.49
48614;BME280;34408;51.426;5.444;2023-04-23T11:13:23;100393.78;;;14.64;65.52
48614;BME280;34408;51.426;5.444;2023-04-23T11:16:15;100402.47;;;14.66;65.55
48614;BME280;34408;51.426;5.444;2023-04-23T11:18:58;100393.28;;;14.67;65.66
48614;BME280;34408;51.426;5.444;2023-04-23T11:21:57;100381.38;;;14.68;65.20
48614;BME280;34408;51.426;5.444;2023-04-23T11:24:27;100372.19;;;14.69;65.17
48614;BME280;34408;51.426;5.444;2023-04-23T11:26:57;100375.19;;;14.73;65.37
48614;BME280;34408;51.426;5.444;2023-04-23T11:29:26;100360.59;;;14.74;65.11
48614;BME280;34408;51.426;5.444;2023-04-23T11:31:55;100366.28;;;14.77;65.22
48614;BME280;34408;51.426;5.444;2023-04-23T11:34:29;100356.06;;;14.84;65.17
48614;BME280;34408;51.426;5.444;2023-04-23T11:36:58;100347.41;;;14.87;64.55
48614;BME280;34408;51.426;5.444;2023-04-23T11:39:26;100347.41;;;14.87;64.59
48614;BME280;34408;51.426;5.444;2023-04-23T11:41:56;100350.97;;;14.93;64.16
48614;BME280;34408;51.426;5.444;2023-04-23T11:44:24;100345.25;;;14.89;64.09
48614;BME280;34408;51.426;5.444;2023-04-23T11:46:52;100333.34;;;14.90;64.52
48614;BME280;34408;51.426;5.444;2023-04-23T11:49:20;100319.00;;;14.85;64.36
48614;BME280;34408;51.426;5.444;2023-04-23T11:51:48;100322.00;;;14.93;64.42
48614;BME280;34408;51.426;5.444;2023-04-23T11:54:16;100324.72;;;14.93;64.23
48614;BME280;34408;51.426;5.444;2023-04-23T11:56:43;100328.53;;;14.97;64.84
48614;BME280;34408;51.426;5.444;2023-04-23T11:59:12;100322.84;;;14.99;64.38
48614;BME280;34408;51.426;5.444;2023-04-23T12:01:42;100318.25;;;15.00;64.20
48614;BME280;34408;51.426;5.444;2023-04-23T12:04:11;100317.72;;;15.03;64.44
48614;BME280;34408;51.426;5.444;2023-04-23T12:06:41;100295.25;;;14.97;64.34
48614;BME280;34408;51.426;5.444;2023-04-23T12:09:10;100302.31;;;15.08;64.33
48614;BME280;34408;51.426;5.444;2023-04-23T12:11:38;100289.06;;;15.07;64.32
48614;BME280;34408;51.426;5.444;2023-04-23T12:14:08;100298.28;;;15.11;64.20
48614;BME280;34408;51.426;5.444;2023-04-23T12:16:40;100294.47;;;15.12;64.34
48614;BME280;34408;51.426;5.444;2023-04-23T12:19:08;100276.88;;;15.09;64.07
48614;BME280;34408;51.426;5.444;2023-04-23T12:21:46;100272.03;;;15.16;65.45
48614;BME280;34408;51.426;5.444;2023-04-23T12:24:14;100270.97;;;15.22;65.10
48614;BME280;34408;51.426;5.444;2023-04-23T12:26:42;100266.09;;;15.19;64.05
48614;BME280;34408;51.426;5.444;2023-04-23T12:29:12;100258.78;;;15.20;64.01
48614;BME280;34408;51.426;5.444;2023-04-23T12:31:42;100258.25;;;15.28;64.75
48614;BME280;34408;51.426;5.444;2023-04-23T12:34:12;100266.91;;;15.25;63.62
48614;BME280;34408;51.426;5.444;2023-04-23T12:36:45;100259.88;;;15.24;63.40
48614;BME280;34408;51.426;5.444;2023-04-23T12:39:20;100254.47;;;15.24;63.25
48614;BME280;34408;51.426;5.444;2023-04-23T12:41:49;100256.09;;;15.25;63.41
48614;BME280;34408;51.426;5.444;2023-04-23T12:44:17;100245.00;;;15.26;63.07
48614;BME280;34408;51.426;5.444;2023-04-23T12:46:48;100231.72;;;15.30;63.31
48614;BME280;34408;51.426;5.444;2023-04-23T12:49:17;100233.38;;;15.31;63.22
48614;BME280;34408;51.426;5.444;2023-04-23T12:51:45;100226.88;;;15.32;62.41
48614;BME280;34408;51.426;5.444;2023-04-23T12:54:12;100227.69;;;15.33;62.44
48614;BME280;34408;51.426;5.444;2023-04-23T12:56:40;100224.69;;;15.34;62.64
48614;BME280;34408;51.426;5.444;2023-04-23T12:59:08;100226.59;;;15.39;63.44
48614;BME280;34408;51.426;5.444;2023-04-23T13:01:36;100229.84;;;15.41;63.14